Time;durP1;ratioP1;P1;durP2;ratioP2;P2;SDS_P1;SDS_P2;PMS_P1;PMS_P2;Temp;Humidity;BMP_temperature;BMP_pressure;BME280_temperature;BME280_humidity;BME280_pressure;Samples;Min_cycle;Max_cycle;Signal;HPM_P1;HPM_P2
2023/09/03 00:03:31;;;;;;;4.53;3.25;;;;;16.20;96997.00;;;;8275727;28;20631;-76
2023/09/03 00:07:35;;;;;;;8.48;3.08;;;;;16.10;96977.00;;;;8272760;28;20230;-75
2023/09/03 00:11:38;;;;;;;6.65;2.80;;;;;16.10;96978.00;;;;8279722;28;20293;-75
2023/09/03 00:15:43;;;;;;;6.35;3.50;;;;;16.00;96979.00;;;;8278015;28;20206;-76
2023/09/03 00:19:49;;;;;;;6.60;3.13;;;;;16.00;96982.00;;;;8279967;28;20289;-75
2023/09/03 00:23:54;;;;;;;3.88;3.35;;;;;15.90;96979.00;;;;8279514;28;20639;-75
2023/09/03 00:27:58;;;;;;;3.90;3.42;;;;;15.90;96980.00;;;;8279900;28;20226;-75
2023/09/03 00:32:03;;;;;;;6.22;3.80;;;;;15.90;96978.00;;;;8279651;28;20205;-75
2023/09/03 00:36:08;;;;;;;9.52;3.65;;;;;15.90;96971.00;;;;8277465;28;20293;-75
2023/09/03 00:40:13;;;;;;;5.22;3.47;;;;;15.80;96978.00;;;;8278438;28;20238;-76
2023/09/03 00:44:17;;;;;;;3.97;3.00;;;;;15.80;96975.00;;;;8283335;28;20345;-76
2023/09/03 00:48:28;;;;;;;5.47;3.78;;;;;15.70;96972.00;;;;8283167;28;20224;-75
2023/09/03 00:52:34;;;;;;;7.53;3.60;;;;;15.70;96981.00;;;;8282988;28;20194;-76
2023/09/03 00:56:43;;;;;;;6.22;3.58;;;;;15.70;96983.00;;;;8267224;28;20194;-75
2023/09/03 01:00:46;;;;;;;6.18;3.17;;;;;15.70;96983.00;;;;8268767;28;20245;-74
2023/09/03 01:04:49;;;;;;;8.20;3.38;;;;;15.70;96980.00;;;;8284785;28;20226;-76
2023/09/03 01:08:53;;;;;;;5.45;3.47;;;;;15.70;96984.00;;;;8284371;28;20232;-76
2023/09/03 01:13:05;;;;;;;9.73;3.92;;;;;15.80;96977.00;;;;8283481;28;20285;-77
2023/09/03 01:17:14;;;;;;;4.50;3.33;;;;;15.70;96986.00;;;;8280720;28;20656;-75
2023/09/03 01:21:30;;;;;;;5.45;3.22;;;;;15.70;96985.00;;;;8280452;28;20214;-76
2023/09/03 01:25:50;;;;;;;6.32;3.45;;;;;15.70;96986.00;;;;8279741;28;20208;-76
2023/09/03 01:29:55;;;;;;;5.90;3.20;;;;;15.60;96992.00;;;;8279945;28;20240;-76
2023/09/03 01:34:03;;;;;;;4.05;3.22;;;;;15.70;96992.00;;;;8280215;28;20202;-76
2023/09/03 01:38:12;;;;;;;7.53;3.30;;;;;15.80;96999.00;;;;8282292;28;20198;-76
2023/09/03 01:42:18;;;;;;;7.25;3.53;;;;;15.80;96997.00;;;;8281074;28;20918;-76
2023/09/03 01:46:27;;;;;;;4.53;3.17;;;;;15.80;96987.00;;;;8266323;28;20199;-76
2023/09/03 01:50:38;;;;;;;7.97;3.50;;;;;15.80;96990.00;;;;8280213;28;20296;-76
2023/09/03 01:54:46;;;;;;;5.07;3.55;;;;;15.80;96991.00;;;;8279441;28;20233;-76
2023/09/03 01:58:55;;;;;;;3.88;3.15;;;;;15.80;97003.00;;;;8266243;28;20237;-76
2023/09/03 02:03:07;;;;;;;6.60;3.10;;;;;15.80;97003.00;;;;8275225;28;20308;-76
2023/09/03 02:07:10;;;;;;;5.70;3.30;;;;;15.80;97004.00;;;;8276072;28;20687;-76
2023/09/03 02:11:16;;;;;;;6.78;2.92;;;;;15.80;97009.00;;;;8276216;28;20198;-76
2023/09/03 02:15:20;;;;;;;4.97;3.28;;;;;15.80;96990.00;;;;8279310;28;20209;-76
2023/09/03 02:19:26;;;;;;;5.95;3.40;;;;;15.80;97009.00;;;;8278087;28;20663;-76
2023/09/03 02:23:29;;;;;;;5.68;3.22;;;;;15.70;97009.00;;;;8274845;28;20252;-76
2023/09/03 02:27:32;;;;;;;4.70;3.40;;;;;15.70;97012.00;;;;8278250;28;20595;-76
2023/09/03 02:31:37;;;;;;;4.32;2.67;;;;;15.70;97002.00;;;;8278479;28;20246;-76
2023/09/03 02:35:43;;;;;;;7.40;3.60;;;;;15.70;97005.00;;;;8279186;28;20275;-76
2023/09/03 02:39:53;;;;;;;4.75;3.30;;;;;15.70;97002.00;;;;8279052;28;20305;-75
2023/09/03 02:43:56;;;;;;;3.00;2.80;;;;;15.60;97005.00;;;;8282217;28;20297;-75
2023/09/03 02:47:59;;;;;;;4.82;3.28;;;;;15.60;97011.00;;;;8275743;28;20636;-76
2023/09/03 02:52:05;;;;;;;5.25;3.55;;;;;15.60;97008.00;;;;8281574;28;20284;-76
2023/09/03 02:56:08;;;;;;;4.50;3.10;;;;;15.60;97011.00;;;;8277990;28;20813;-75
2023/09/03 03:04:32;;;;;;;4.68;3.15;;;;;15.40;97015.00;;;;8307858;22;20244;-76
2023/09/03 03:08:36;;;;;;;5.18;3.42;;;;;15.30;97013.00;;;;8308039;28;20229;-76
2023/09/03 03:12:44;;;;;;;4.57;3.25;;;;;15.30;97010.00;;;;8315280;28;20205;-75
2023/09/03 03:16:51;;;;;;;5.57;2.97;;;;;15.30;97006.00;;;;8314286;28;20655;-75
2023/09/03 03:20:55;;;;;;;5.00;2.65;;;;;15.20;97019.00;;;;8312726;28;20316;-75
2023/09/03 03:25:02;;;;;;;6.50;3.38;;;;;15.20;97015.00;;;;8315963;28;20197;-75
2023/09/03 03:29:09;;;;;;;4.70;3.30;;;;;15.20;97012.00;;;;8308236;28;20229;-75
2023/09/03 03:33:12;;;;;;;3.88;3.03;;;;;15.20;97025.00;;;;8308190;28;20285;-75
2023/09/03 03:37:16;;;;;;;3.70;3.30;;;;;15.20;97029.00;;;;8312498;28;20213;-75
2023/09/03 03:41:21;;;;;;;3.60;3.30;;;;;15.20;97035.00;;;;8311058;28;20209;-75
2023/09/03 03:45:24;;;;;;;4.93;3.45;;;;;15.20;97035.00;;;;8309717;28;20212;-74
2023/09/03 03:49:27;;;;;;;5.25;3.72;;;;;15.20;97027.00;;;;8312101;28;20264;-75
2023/09/03 03:53:31;;;;;;;11.60;3.78;;;;;15.20;97029.00;;;;8306818;28;20198;-75
2023/09/03 03:57:35;;;;;;;4.57;2.95;;;;;15.20;97033.00;;;;8308756;28;20263;-75
2023/09/03 04:01:40;;;;;;;9.18;3.50;;;;;15.30;97050.00;;;;8310702;28;20199;-74
2023/09/03 04:05:46;;;;;;;4.38;3.65;;;;;15.20;97056.00;;;;8282065;28;20613;-75
2023/09/03 04:09:50;;;;;;;5.53;3.67;;;;;15.20;97051.00;;;;8284537;28;20216;-75
2023/09/03 04:13:55;;;;;;;4.72;3.50;;;;;15.30;97062.00;;;;8282682;28;20289;-75
2023/09/03 04:17:59;;;;;;;4.90;3.35;;;;;15.30;97069.00;;;;8282322;28;20240;-75
2023/09/03 04:22:03;;;;;;;8.82;3.50;;;;;15.30;97063.00;;;;8282494;28;20279;-75
2023/09/03 04:26:13;;;;;;;4.25;3.55;;;;;15.30;97056.00;;;;8285963;28;20635;-75
2023/09/03 04:30:17;;;;;;;5.88;3.45;;;;;15.30;97053.00;;;;8287525;28;20300;-75
2023/09/03 04:34:22;;;;;;;6.80;3.17;;;;;15.30;97055.00;;;;8285555;28;20195;-74
2023/09/03 04:38:27;;;;;;;4.63;3.42;;;;;15.20;97058.00;;;;8284573;28;20209;-74
2023/09/03 04:42:37;;;;;;;4.22;3.40;;;;;15.30;97069.00;;;;8285624;28;20659;-74
2023/09/03 04:46:47;;;;;;;4.40;3.22;;;;;15.30;97077.00;;;;8285967;28;20206;-74
2023/09/03 04:50:50;;;;;;;4.95;3.67;;;;;15.30;97077.00;;;;8286150;28;20690;-74
2023/09/03 04:54:55;;;;;;;3.60;3.20;;;;;15.20;97079.00;;;;8285969;28;20293;-74
2023/09/03 04:58:59;;;;;;;6.70;3.35;;;;;15.20;97068.00;;;;8286760;28;20206;-75
2023/09/03 05:03:04;;;;;;;4.50;3.70;;;;;15.20;97079.00;;;;8284643;28;20233;-74
2023/09/03 05:07:08;;;;;;;4.93;3.30;;;;;15.20;97088.00;;;;8285132;28;20655;-74
2023/09/03 05:11:13;;;;;;;5.85;3.30;;;;;15.30;97090.00;;;;8284781;28;20237;-74
2023/09/03 05:15:16;;;;;;;5.20;3.17;;;;;15.30;97102.00;;;;8282222;28;20244;-74
2023/09/03 05:19:21;;;;;;;4.90;3.35;;;;;15.40;97089.00;;;;8285756;28;21166;-74
2023/09/03 05:23:25;;;;;;;3.40;3.10;;;;;15.50;97087.00;;;;8279954;28;20710;-74
2023/09/03 05:27:29;;;;;;;4.65;3.47;;;;;15.60;97082.00;;;;8285416;28;20309;-75
2023/09/03 05:31:35;;;;;;;7.40;3.25;;;;;15.70;97087.00;;;;8282926;28;20344;-74
2023/09/03 05:35:41;;;;;;;5.85;3.85;;;;;15.90;97092.00;;;;8283701;28;20228;-73
2023/09/03 05:39:45;;;;;;;6.75;3.63;;;;;16.00;97090.00;;;;8282058;28;20213;-74
2023/09/03 05:43:55;;;;;;;5.50;3.55;;;;;16.20;97103.00;;;;8282007;28;20555;-75
2023/09/03 05:47:59;;;;;;;6.85;3.30;;;;;16.30;97096.00;;;;8280511;28;20237;-75
2023/09/03 05:52:04;;;;;;;6.53;3.42;;;;;16.40;97102.00;;;;8283716;28;20195;-76
2023/09/03 05:56:11;;;;;;;4.78;3.55;;;;;16.60;97100.00;;;;8283548;28;20218;-76
2023/09/03 06:00:16;;;;;;;7.60;3.20;;;;;16.80;97112.00;;;;8282728;28;20786;-76
2023/09/03 06:04:19;;;;;;;4.30;3.30;;;;;17.00;97110.00;;;;8276842;28;20230;-75
2023/09/03 06:08:24;;;;;;;4.43;2.97;;;;;17.20;97125.00;;;;8278251;28;20289;-75
2023/09/03 06:12:33;;;;;;;4.47;3.30;;;;;17.40;97120.00;;;;8284421;28;20198;-73
2023/09/03 06:16:37;;;;;;;6.82;3.20;;;;;17.70;97129.00;;;;8278879;28;20453;-74
2023/09/03 06:20:41;;;;;;;10.40;3.10;;;;;17.90;97129.00;;;;8281566;28;20205;-73
2023/09/03 06:24:46;;;;;;;5.78;2.90;;;;;18.20;97136.00;;;;8281940;28;20252;-73
2023/09/03 06:28:50;;;;;;;5.85;2.90;;;;;18.40;97137.00;;;;8283364;28;20226;-74
2023/09/03 06:32:57;;;;;;;4.88;3.00;;;;;18.70;97138.00;;;;8283688;28;20801;-73
2023/09/03 06:37:00;;;;;;;4.38;3.10;;;;;18.90;97140.00;;;;8281681;28;20550;-73
2023/09/03 06:41:07;;;;;;;3.35;2.33;;;;;19.10;97149.00;;;;8277950;28;20201;-74
2023/09/03 06:45:10;;;;;;;4.05;2.60;;;;;19.40;97148.00;;;;8274826;28;20297;-73
2023/09/03 06:49:15;;;;;;;2.67;2.58;;;;;19.70;97157.00;;;;8283272;28;20226;-75
2023/09/03 06:53:19;;;;;;;7.88;3.65;;;;;19.90;97156.00;;;;8281695;28;20198;-75
2023/09/03 06:57:24;;;;;;;3.20;2.13;;;;;20.20;97169.00;;;;8281783;28;20305;-75
2023/09/03 07:01:31;;;;;;;4.43;2.80;;;;;20.50;97175.00;;;;8282524;28;20204;-76
2023/09/03 07:05:38;;;;;;;2.67;2.10;;;;;20.90;97182.00;;;;8281387;28;20638;-76
2023/09/03 07:09:43;;;;;;;2.90;2.22;;;;;21.20;97176.00;;;;8281964;28;20260;-76
2023/09/03 07:13:51;;;;;;;3.03;2.30;;;;;21.40;97189.00;;;;8282197;28;20208;-76
2023/09/03 07:17:54;;;;;;;2.10;2.00;;;;;21.70;97195.00;;;;8279803;28;20305;-77
2023/09/03 07:21:58;;;;;;;2.63;2.42;;;;;22.00;97191.00;;;;8280767;28;20213;-78
2023/09/03 07:26:06;;;;;;;6.35;2.10;;;;;22.10;97206.00;;;;8279849;28;20205;-76
2023/09/03 07:30:14;;;;;;;2.70;2.22;;;;;22.40;97223.00;;;;8276096;28;20229;-76
2023/09/03 07:34:19;;;;;;;3.85;2.20;;;;;22.60;97226.00;;;;8289828;28;20202;-77
2023/09/03 07:38:25;;;;;;;2.40;2.20;;;;;23.10;97202.00;;;;8275921;28;20301;-76
2023/09/03 07:42:29;;;;;;;3.10;2.03;;;;;23.60;97216.00;;;;8280901;28;20196;-77
2023/09/03 07:46:38;;;;;;;2.15;2.05;;;;;23.90;97210.00;;;;8282447;28;20198;-79
2023/09/03 07:50:44;;;;;;;5.78;2.13;;;;;24.20;97204.00;;;;8283313;28;20262;-78
2023/09/03 07:54:54;;;;;;;3.20;1.95;;;;;24.40;97213.00;;;;8284441;28;20644;-77
2023/09/03 07:59:00;;;;;;;1.88;1.77;;;;;24.60;97228.00;;;;8283461;28;20647;-75
2023/09/03 08:03:09;;;;;;;4.68;2.10;;;;;24.90;97233.00;;;;8283179;28;20226;-80
2023/09/03 08:07:15;;;;;;;3.40;1.90;;;;;25.00;97232.00;;;;8282451;28;20201;-75
2023/09/03 08:11:18;;;;;;;2.65;2.10;;;;;25.10;97246.00;;;;8282677;28;20254;-72
2023/09/03 08:15:24;;;;;;;2.40;2.10;;;;;25.20;97263.00;;;;8286692;28;20205;-72
2023/09/03 08:19:50;;;;;;;1.90;1.80;;;;;25.40;97271.00;;;;8282346;28;20293;-72
2023/09/03 08:23:55;;;;;;;1.88;1.77;;;;;25.50;97271.00;;;;8282849;28;20289;-75
2023/09/03 08:28:01;;;;;;;2.55;2.00;;;;;25.50;97278.00;;;;8281958;28;20289;-72
2023/09/03 08:32:04;;;;;;;1.92;1.80;;;;;25.60;97285.00;;;;8285751;28;20317;-72
2023/09/03 08:36:16;;;;;;;3.00;1.52;;;;;25.60;97289.00;;;;8278071;28;20202;-71
2023/09/03 08:40:19;;;;;;;1.73;1.63;;;;;25.40;97293.00;;;;8283639;28;20205;-72
2023/09/03 08:44:27;;;;;;;1.70;1.60;;;;;25.20;97285.00;;;;8284179;28;20230;-71
2023/09/03 08:48:34;;;;;;;1.40;1.40;;;;;24.90;97288.00;;;;8279375;28;20754;-70
2023/09/03 08:52:40;;;;;;;1.35;1.35;;;;;24.80;97277.00;;;;8285789;28;20304;-72
2023/09/03 08:56:47;;;;;;;1.70;1.70;;;;;24.80;97278.00;;;;8285970;28;20302;-72
2023/09/03 09:00:50;;;;;;;1.60;1.60;;;;;25.00;97286.00;;;;8281483;28;20229;-73
2023/09/03 09:04:59;;;;;;;1.48;1.48;;;;;25.40;97281.00;;;;8281525;28;20233;-73
2023/09/03 09:09:11;;;;;;;1.70;1.60;;;;;25.60;97281.00;;;;8284428;28;20210;-73
2023/09/03 09:13:19;;;;;;;1.70;1.60;;;;;25.80;97286.00;;;;8280986;28;20734;-74
2023/09/03 09:17:23;;;;;;;1.85;1.60;;;;;26.00;97294.00;;;;8284399;28;20229;-74
2023/09/03 09:21:30;;;;;;;2.92;1.60;;;;;26.10;97296.00;;;;8284454;28;20206;-74
2023/09/03 09:25:35;;;;;;;1.40;1.40;;;;;26.10;97296.00;;;;8284059;28;20257;-74
2023/09/03 09:29:39;;;;;;;2.50;1.70;;;;;26.00;97291.00;;;;8283737;28;20634;-74
2023/09/03 09:33:51;;;;;;;1.65;1.60;;;;;25.80;97282.00;;;;8284169;28;20226;-74
2023/09/03 09:38:03;;;;;;;1.40;1.40;;;;;25.80;97272.00;;;;8282252;28;20198;-74
2023/09/03 09:42:12;;;;;;;1.45;1.45;;;;;25.80;97281.00;;;;8279264;28;20666;-74
2023/09/03 09:46:33;;;;;;;2.25;1.50;;;;;26.10;97278.00;;;;8282559;28;20312;-74
2023/09/03 09:50:48;;;;;;;1.80;1.70;;;;;26.50;97282.00;;;;8279311;28;20233;-73
2023/09/03 09:54:51;;;;;;;1.67;1.58;;;;;26.80;97278.00;;;;8283126;28;20198;-73
2023/09/03 09:58:58;;;;;;;1.77;1.42;;;;;26.80;97284.00;;;;8283296;28;21024;-74
2023/09/03 10:03:02;;;;;;;1.48;1.38;;;;;26.30;97283.00;;;;8279334;28;20226;-73
2023/09/03 10:07:06;;;;;;;2.58;1.40;;;;;26.10;97283.00;;;;8280647;28;20221;-73
2023/09/03 10:11:10;;;;;;;1.95;1.50;;;;;26.30;97276.00;;;;8280638;28;20233;-74
2023/09/03 10:15:15;;;;;;;1.40;1.40;;;;;26.50;97283.00;;;;8283398;28;20292;-73
2023/09/03 10:19:25;;;;;;;1.63;1.60;;;;;26.40;97285.00;;;;8278981;28;20202;-74
2023/09/03 10:23:32;;;;;;;1.48;1.40;;;;;26.50;97289.00;;;;8280939;28;20207;-74
2023/09/03 10:27:41;;;;;;;1.40;1.30;;;;;26.60;97304.00;;;;8277196;28;20313;-74
2023/09/03 10:31:51;;;;;;;3.55;1.30;;;;;26.60;97300.00;;;;8280947;28;20260;-74
2023/09/03 10:36:16;;;;;;;2.72;1.30;;;;;27.30;97316.00;;;;8280854;28;20202;-74
2023/09/03 10:40:21;;;;;;;2.30;1.30;;;;;27.60;97319.00;;;;8289042;28;20229;-73
2023/09/03 10:44:35;;;;;;;1.35;1.35;;;;;27.10;97323.00;;;;8284499;28;20213;-75
2023/09/03 10:48:39;;;;;;;1.30;1.30;;;;;26.90;97312.00;;;;8288785;28;20213;-74
2023/09/03 10:52:43;;;;;;;1.40;1.25;;;;;27.20;97319.00;;;;8285521;28;20316;-74
2023/09/03 10:57:17;;;;;;;1.33;1.33;;;;;27.40;97317.00;;;;8293068;28;20615;-75
2023/09/03 11:01:36;;;;;;;1.42;1.33;;;;;27.20;97317.00;;;;8282172;28;20194;-74
2023/09/03 11:05:41;;;;;;;1.92;1.80;;;;;26.90;97306.00;;;;8282041;28;20232;-75
2023/09/03 11:09:48;;;;;;;1.45;1.45;;;;;26.90;97307.00;;;;8300937;28;20312;-75
2023/09/03 11:13:54;;;;;;;2.08;1.48;;;;;27.00;97309.00;;;;8287586;28;20221;-75
2023/09/03 11:17:58;;;;;;;1.10;1.10;;;;;27.10;97319.00;;;;8283858;28;20210;-75
2023/09/03 11:22:04;;;;;;;3.03;1.30;;;;;27.00;97317.00;;;;8288236;28;20201;-75
2023/09/03 11:26:14;;;;;;;1.40;1.40;;;;;26.70;97311.00;;;;8290495;28;20201;-75
2023/09/03 11:30:18;;;;;;;1.00;1.00;;;;;26.80;97300.00;;;;8283780;28;20221;-75
2023/09/03 11:34:23;;;;;;;1.30;1.30;;;;;27.50;97289.00;;;;8291494;28;20204;-75
2023/09/03 11:38:32;;;;;;;1.33;1.30;;;;;28.30;97288.00;;;;8286741;28;20209;-74
2023/09/03 11:42:35;;;;;;;1.60;1.50;;;;;28.80;97299.00;;;;8287101;28;20194;-75
2023/09/03 11:46:56;;;;;;;1.33;1.30;;;;;28.50;97308.00;;;;8287225;28;20305;-74
2023/09/03 11:51:04;;;;;;;1.25;1.25;;;;;28.40;97303.00;;;;8288793;28;20213;-75
2023/09/03 11:55:09;;;;;;;1.30;1.30;;;;;28.50;97307.00;;;;8290486;28;21003;-77
2023/09/03 11:59:14;;;;;;;1.45;1.30;;;;;28.80;97313.00;;;;8285821;28;20198;-74
2023/09/03 12:03:18;;;;;;;1.30;1.20;;;;;29.00;97314.00;;;;8294385;28;20622;-73
2023/09/03 12:07:22;;;;;;;3.05;1.20;;;;;29.00;97307.00;;;;8288070;28;20204;-75
2023/09/03 12:11:35;;;;;;;1.30;1.20;;;;;29.10;97315.00;;;;8299387;28;20257;-74
2023/09/03 12:15:40;;;;;;;1.50;1.17;;;;;28.80;97309.00;;;;8293843;28;20194;-73
2023/09/03 12:19:43;;;;;;;1.35;1.35;;;;;28.90;97311.00;;;;8282669;28;20198;-74
2023/09/03 12:23:47;;;;;;;1.30;1.30;;;;;29.00;97301.00;;;;8277244;28;20740;-74
2023/09/03 12:27:52;;;;;;;1.25;1.13;;;;;29.00;97307.00;;;;8284559;28;20289;-75
2023/09/03 12:31:56;;;;;;;2.75;1.45;;;;;28.90;97310.00;;;;8289428;28;20284;-74
2023/09/03 12:36:07;;;;;;;1.75;1.40;;;;;29.10;97297.00;;;;8291172;28;20711;-73
2023/09/03 12:40:12;;;;;;;1.35;1.35;;;;;29.20;97285.00;;;;8289161;28;20197;-74
2023/09/03 12:44:16;;;;;;;1.27;1.27;;;;;29.20;97298.00;;;;8284671;28;21406;-75
2023/09/03 12:48:20;;;;;;;1.95;1.20;;;;;29.30;97291.00;;;;8282672;28;20240;-74
2023/09/03 12:52:23;;;;;;;1.35;1.33;;;;;29.40;97284.00;;;;8281548;28;20236;-75
2023/09/03 12:56:28;;;;;;;1.20;1.20;;;;;29.40;97289.00;;;;8288648;28;20205;-74
2023/09/03 13:00:34;;;;;;;1.00;1.00;;;;;29.50;97280.00;;;;8283899;28;20320;-74
2023/09/03 13:04:37;;;;;;;1.48;1.20;;;;;29.50;97279.00;;;;8290401;28;20333;-74
2023/09/03 13:08:43;;;;;;;2.05;1.20;;;;;29.60;97270.00;;;;8282766;28;20204;-75
2023/09/03 13:12:49;;;;;;;1.20;1.20;;;;;29.60;97270.00;;;;8283370;28;20213;-73
2023/09/03 13:16:54;;;;;;;2.10;1.40;;;;;29.60;97264.00;;;;8287076;28;20209;-74
2023/09/03 13:20:59;;;;;;;1.50;1.30;;;;;29.30;97269.00;;;;8287682;28;20206;-73
2023/09/03 13:25:05;;;;;;;1.20;1.20;;;;;29.10;97278.00;;;;8281224;28;20289;-74
2023/09/03 13:29:08;;;;;;;1.27;1.27;;;;;29.10;97282.00;;;;8285379;28;20206;-74
2023/09/03 13:33:12;;;;;;;1.95;1.23;;;;;29.00;97275.00;;;;8283852;28;20217;-72
2023/09/03 13:37:18;;;;;;;1.20;1.20;;;;;28.80;97285.00;;;;8281945;28;20197;-74
2023/09/03 13:41:22;;;;;;;1.17;1.17;;;;;29.00;97278.00;;;;8293809;28;20700;-72
2023/09/03 13:45:30;;;;;;;1.30;1.20;;;;;28.80;97274.00;;;;8278319;28;20198;-74
2023/09/03 13:49:35;;;;;;;1.92;1.30;;;;;28.70;97276.00;;;;8283137;28;21069;-74
2023/09/03 13:53:42;;;;;;;1.58;1.20;;;;;28.80;97274.00;;;;8279574;28;20795;-72
2023/09/03 13:57:45;;;;;;;1.75;1.60;;;;;28.80;97278.00;;;;8281607;28;20285;-74
2023/09/03 14:01:51;;;;;;;1.25;1.23;;;;;28.60;97282.00;;;;8281227;28;20202;-73
2023/09/03 14:06:06;;;;;;;1.67;1.52;;;;;28.70;97275.00;;;;8281809;28;20226;-73
2023/09/03 14:10:10;;;;;;;1.33;1.30;;;;;28.70;97283.00;;;;8279256;28;20217;-72
2023/09/03 14:14:20;;;;;;;1.20;1.20;;;;;28.60;97277.00;;;;8280992;28;20260;-72
2023/09/03 14:18:27;;;;;;;1.58;1.45;;;;;28.60;97274.00;;;;8280651;28;20203;-72
2023/09/03 14:22:33;;;;;;;2.47;1.42;;;;;28.40;97285.00;;;;8284516;28;20210;-74
2023/09/03 14:26:37;;;;;;;1.33;1.30;;;;;28.50;97278.00;;;;8285919;28;20684;-72
2023/09/03 14:30:41;;;;;;;1.50;1.50;;;;;28.90;97289.00;;;;8282275;28;20197;-73
2023/09/03 14:34:45;;;;;;;1.35;1.30;;;;;28.90;97288.00;;;;8281785;28;20283;-72
2023/09/03 14:38:49;;;;;;;1.55;1.50;;;;;28.60;97287.00;;;;8284436;28;20278;-72
2023/09/03 14:42:53;;;;;;;1.50;1.40;;;;;28.40;97286.00;;;;8281231;28;20603;-72
2023/09/03 14:46:56;;;;;;;1.60;1.50;;;;;28.10;97289.00;;;;8289576;28;20236;-73
2023/09/03 14:50:59;;;;;;;1.60;1.60;;;;;28.20;97282.00;;;;8292811;28;20198;-73
2023/09/03 14:55:06;;;;;;;2.05;1.30;;;;;28.30;97280.00;;;;8302534;28;20229;-73
2023/09/03 14:59:11;;;;;;;1.55;1.50;;;;;28.20;97290.00;;;;8297375;28;20567;-73
2023/09/03 15:03:18;;;;;;;5.53;1.50;;;;;28.20;97284.00;;;;8295157;28;20229;-72
2023/09/03 15:07:23;;;;;;;2.03;1.30;;;;;28.30;97289.00;;;;8290160;28;20243;-73
2023/09/03 15:11:29;;;;;;;1.75;1.65;;;;;28.30;97282.00;;;;8294808;28;20686;-72
2023/09/03 15:15:35;;;;;;;1.73;1.65;;;;;28.30;97292.00;;;;8294461;28;20543;-72
2023/09/03 15:19:38;;;;;;;1.50;1.42;;;;;28.20;97291.00;;;;8290421;28;20285;-72
2023/09/03 15:23:45;;;;;;;1.60;1.55;;;;;28.00;97297.00;;;;8288563;28;20198;-72
2023/09/03 15:27:53;;;;;;;1.67;1.58;;;;;28.00;97292.00;;;;8293349;28;20787;-72
2023/09/03 15:31:56;;;;;;;1.63;1.52;;;;;27.90;97302.00;;;;8292913;28;20355;-72
2023/09/03 15:36:03;;;;;;;1.92;1.60;;;;;27.60;97306.00;;;;8292173;28;20198;-72
2023/09/03 15:40:08;;;;;;;1.70;1.60;;;;;27.30;97304.00;;;;8292590;28;20992;-72
2023/09/03 15:44:12;;;;;;;1.95;1.75;;;;;27.10;97309.00;;;;8287168;28;20357;-72
2023/09/03 15:48:20;;;;;;;1.65;1.60;;;;;27.00;97309.00;;;;8293705;28;20213;-72
2023/09/03 15:52:23;;;;;;;1.90;1.80;;;;;26.80;97315.00;;;;8290825;28;20229;-72
2023/09/03 15:56:27;;;;;;;1.38;1.30;;;;;26.60;97319.00;;;;8287837;28;20288;-71
2023/09/03 16:00:31;;;;;;;1.67;1.63;;;;;26.40;97310.00;;;;8288286;28;20209;-71
2023/09/03 16:04:34;;;;;;;1.92;1.83;;;;;26.10;97312.00;;;;8286659;28;20225;-72
2023/09/03 16:08:40;;;;;;;1.90;1.80;;;;;25.90;97320.00;;;;8292409;28;20247;-72
2023/09/03 16:12:43;;;;;;;1.90;1.77;;;;;25.90;97319.00;;;;8273526;28;20225;-72
2023/09/03 16:16:51;;;;;;;1.70;1.70;;;;;25.80;97321.00;;;;8292592;28;20305;-72
2023/09/03 16:20:57;;;;;;;4.35;1.88;;;;;25.70;97314.00;;;;8289177;28;20194;-72
2023/09/03 16:25:00;;;;;;;1.65;1.63;;;;;25.70;97318.00;;;;8294074;28;20229;-72
2023/09/03 16:29:03;;;;;;;1.95;1.85;;;;;25.70;97316.00;;;;8306869;28;20201;-72
2023/09/03 16:33:07;;;;;;;1.70;1.60;;;;;25.80;97322.00;;;;8303618;28;20524;-72
2023/09/03 16:37:11;;;;;;;2.20;2.00;;;;;25.70;97327.00;;;;8286270;28;20999;-72
2023/09/03 16:41:14;;;;;;;1.50;1.50;;;;;25.70;97324.00;;;;8289252;28;20213;-72
2023/09/03 16:45:17;;;;;;;3.00;2.33;;;;;25.60;97323.00;;;;8289308;28;20333;-72
2023/09/03 16:49:23;;;;;;;3.45;2.53;;;;;25.40;97327.00;;;;8293476;28;20280;-72
2023/09/03 16:53:27;;;;;;;3.92;2.47;;;;;25.20;97329.00;;;;8285729;28;20253;-71
2023/09/03 16:57:30;;;;;;;2.05;1.95;;;;;25.00;97331.00;;;;8294567;28;20202;-75
2023/09/03 17:01:38;;;;;;;2.40;1.88;;;;;24.80;97331.00;;;;8281831;28;20237;-74
2023/09/03 17:05:49;;;;;;;2.08;1.98;;;;;24.60;97343.00;;;;8272636;28;20230;-75
2023/09/03 17:09:55;;;;;;;2.20;2.00;;;;;24.30;97338.00;;;;8278675;28;20821;-76
2023/09/03 17:14:09;;;;;;;1.98;1.80;;;;;24.10;97341.00;;;;8275674;28;20218;-74
2023/09/03 17:18:13;;;;;;;2.30;2.03;;;;;23.80;97337.00;;;;8284646;28;20571;-74
2023/09/03 17:22:17;;;;;;;2.10;2.00;;;;;23.60;97340.00;;;;8287226;28;20205;-75
2023/09/03 17:26:20;;;;;;;4.43;2.50;;;;;23.30;97346.00;;;;8278643;28;20202;-74
2023/09/03 17:30:34;;;;;;;4.70;2.33;;;;;23.10;97356.00;;;;8276245;28;20198;-74
2023/09/03 17:34:41;;;;;;;2.40;2.20;;;;;22.90;97353.00;;;;8279993;28;20386;-74
2023/09/03 17:38:45;;;;;;;2.25;2.13;;;;;22.70;97357.00;;;;8299869;28;20214;-73
2023/09/03 17:42:51;;;;;;;2.28;2.17;;;;;22.60;97355.00;;;;8293264;28;20241;-73
2023/09/03 17:46:57;;;;;;;4.72;2.25;;;;;22.40;97353.00;;;;8282262;28;20281;-74
2023/09/03 17:51:04;;;;;;;2.20;2.10;;;;;22.20;97357.00;;;;8289454;28;20194;-73
2023/09/03 17:55:11;;;;;;;2.38;1.80;;;;;22.00;97353.00;;;;8289744;28;20308;-73
2023/09/03 17:59:14;;;;;;;2.83;2.63;;;;;21.80;97349.00;;;;8293539;28;20210;-73
2023/09/03 18:03:20;;;;;;;2.55;2.35;;;;;21.70;97359.00;;;;8282772;28;20240;-75
2023/09/03 18:07:24;;;;;;;4.85;2.55;;;;;21.50;97359.00;;;;8288200;28;20678;-75
2023/09/03 18:11:29;;;;;;;3.33;2.72;;;;;21.30;97366.00;;;;8288667;28;20205;-75
2023/09/03 18:15:32;;;;;;;2.50;2.40;;;;;21.10;97369.00;;;;8285739;28;20653;-74
2023/09/03 18:19:36;;;;;;;4.15;2.45;;;;;20.80;97378.00;;;;8280859;28;20210;-75
2023/09/03 18:23:41;;;;;;;2.80;2.55;;;;;20.60;97374.00;;;;8283785;28;20208;-74
2023/09/03 18:27:48;;;;;;;2.67;2.47;;;;;20.40;97372.00;;;;8285858;28;20210;-74
2023/09/03 18:31:53;;;;;;;2.85;2.47;;;;;20.20;97370.00;;;;8282939;28;20194;-75
2023/09/03 18:35:56;;;;;;;3.00;2.80;;;;;20.10;97387.00;;;;8279928;28;20226;-74
2023/09/03 18:40:02;;;;;;;3.10;2.88;;;;;20.00;97392.00;;;;8279128;28;20190;-74
2023/09/03 18:44:09;;;;;;;3.70;3.10;;;;;19.90;97403.00;;;;8289601;28;20313;-74
2023/09/03 18:48:12;;;;;;;3.08;2.80;;;;;19.80;97403.00;;;;8274430;28;20210;-73
2023/09/03 18:52:17;;;;;;;3.17;2.97;;;;;19.80;97411.00;;;;8283418;28;20229;-74
2023/09/03 18:56:21;;;;;;;3.30;3.00;;;;;19.70;97418.00;;;;8283853;28;20743;-74
2023/09/03 19:00:28;;;;;;;4.20;3.13;;;;;19.60;97418.00;;;;8298621;28;20889;-74
2023/09/03 19:04:32;;;;;;;3.05;2.85;;;;;19.50;97417.00;;;;8299600;28;20339;-73
2023/09/03 19:08:37;;;;;;;3.60;3.30;;;;;19.40;97412.00;;;;8295422;28;20318;-74
2023/09/03 19:12:42;;;;;;;4.40;3.10;;;;;19.20;97408.00;;;;8285328;28;20628;-71
2023/09/03 19:16:50;;;;;;;3.60;3.30;;;;;19.10;97411.00;;;;8282971;28;20240;-72
2023/09/03 19:20:56;;;;;;;3.70;3.42;;;;;18.90;97405.00;;;;8280196;28;20257;-71
2023/09/03 19:25:05;;;;;;;6.25;3.20;;;;;18.70;97419.00;;;;8276441;28;20198;-72
2023/09/03 19:29:12;;;;;;;5.10;3.22;;;;;18.50;97415.00;;;;8274652;28;20811;-71
2023/09/03 19:33:19;;;;;;;3.88;3.47;;;;;18.30;97418.00;;;;8269970;28;20933;-71
2023/09/03 19:37:24;;;;;;;5.97;3.55;;;;;18.10;97409.00;;;;8271792;28;20194;-71
2023/09/03 19:41:29;;;;;;;3.90;3.60;;;;;18.00;97414.00;;;;8274442;28;20225;-68
2023/09/03 19:45:32;;;;;;;5.47;3.85;;;;;17.90;97419.00;;;;8278902;28;20281;-68
2023/09/03 19:49:40;;;;;;;7.22;4.10;;;;;18.10;97411.00;;;;8275651;28;20257;-68
2023/09/03 19:53:43;;;;;;;4.93;4.28;;;;;18.20;97410.00;;;;8275126;28;20226;-68
2023/09/03 19:57:52;;;;;;;7.43;4.43;;;;;18.40;97403.00;;;;8288513;28;20234;-69
2023/09/03 20:01:58;;;;;;;4.88;4.00;;;;;18.50;97416.00;;;;8282153;28;21055;-68
2023/09/03 20:06:07;;;;;;;5.30;3.72;;;;;18.60;97415.00;;;;8263937;28;20525;-67
2023/09/03 20:10:11;;;;;;;4.60;3.83;;;;;18.60;97428.00;;;;8263491;28;20278;-68
2023/09/03 20:14:16;;;;;;;6.63;3.95;;;;;18.60;97425.00;;;;8263812;28;20588;-67
2023/09/03 20:18:19;;;;;;;5.30;4.10;;;;;18.50;97414.00;;;;8263445;28;20241;-72
2023/09/03 20:22:28;;;;;;;4.30;3.90;;;;;18.50;97418.00;;;;8264927;28;20201;-73
2023/09/03 20:26:31;;;;;;;4.88;4.47;;;;;18.40;97419.00;;;;8263675;28;20240;-69
2023/09/03 20:30:36;;;;;;;6.22;4.50;;;;;18.30;97423.00;;;;8264515;28;20720;-70
2023/09/03 20:34:42;;;;;;;5.78;4.38;;;;;18.20;97421.00;;;;8263947;28;20226;-69
2023/09/03 20:38:46;;;;;;;5.05;4.55;;;;;18.10;97421.00;;;;8263460;28;20290;-68